sensor_id;sensor_type;location;lat;lon;timestamp;P1;durP1;ratioP1;P2;durP2;ratioP2
69703;SDS011;56967;43.538;-5.646;2022-09-20T00:00:41;8.70;;;2.60;;
69703;SDS011;56967;43.538;-5.646;2022-09-20T00:03:07;8.60;;;2.78;;
69703;SDS011;56967;43.538;-5.646;2022-09-20T00:05:34;6.03;;;2.40;;
69703;SDS011;56967;43.538;-5.646;2022-09-20T00:08:01;7.82;;;2.80;;
69703;SDS011;56967;43.538;-5.646;2022-09-20T00:10:34;10.07;;;2.65;;
69703;SDS011;56967;43.538;-5.646;2022-09-20T00:13:02;6.28;;;2.83;;
69703;SDS011;56967;43.538;-5.646;2022-09-20T00:15:28;6.15;;;2.03;;
69703;SDS011;56967;43.538;-5.646;2022-09-20T00:17:54;6.18;;;2.10;;
69703;SDS011;56967;43.538;-5.646;2022-09-20T00:20:20;6.70;;;2.50;;
69703;SDS011;56967;43.538;-5.646;2022-09-20T00:22:45;6.65;;;2.60;;
69703;SDS011;56967;43.538;-5.646;2022-09-20T00:25:14;6.85;;;2.63;;
69703;SDS011;56967;43.538;-5.646;2022-09-20T00:27:40;5.57;;;2.28;;
69703;SDS011;56967;43.538;-5.646;2022-09-20T00:30:06;5.18;;;2.10;;
69703;SDS011;56967;43.538;-5.646;2022-09-20T00:32:32;7.07;;;2.20;;
69703;SDS011;56967;43.538;-5.646;2022-09-20T00:34:58;10.05;;;2.80;;
69703;SDS011;56967;43.538;-5.646;2022-09-20T00:37:33;5.45;;;2.40;;
69703;SDS011;56967;43.538;-5.646;2022-09-20T00:39:59;9.77;;;2.20;;
69703;SDS011;56967;43.538;-5.646;2022-09-20T00:42:26;5.78;;;2.40;;
69703;SDS011;56967;43.538;-5.646;2022-09-20T00:44:55;8.75;;;2.42;;
69703;SDS011;56967;43.538;-5.646;2022-09-20T00:47:32;5.72;;;2.10;;
69703;SDS011;56967;43.538;-5.646;2022-09-20T00:52:44;6.10;;;1.80;;
69703;SDS011;56967;43.538;-5.646;2022-09-20T00:55:12;8.02;;;2.35;;
69703;SDS011;56967;43.538;-5.646;2022-09-20T00:57:39;7.40;;;2.20;;
69703;SDS011;56967;43.538;-5.646;2022-09-20T01:00:07;3.20;;;1.90;;
69703;SDS011;56967;43.538;-5.646;2022-09-20T01:02:34;8.32;;;2.55;;
69703;SDS011;56967;43.538;-5.646;2022-09-20T01:05:03;6.13;;;2.00;;
69703;SDS011;56967;43.538;-5.646;2022-09-20T01:07:29;5.28;;;1.90;;
69703;SDS011;56967;43.538;-5.646;2022-09-20T01:09:55;4.70;;;1.63;;
69703;SDS011;56967;43.538;-5.646;2022-09-20T01:12:21;5.57;;;1.95;;
69703;SDS011;56967;43.538;-5.646;2022-09-20T01:14:51;3.58;;;1.77;;
69703;SDS011;56967;43.538;-5.646;2022-09-20T01:17:18;5.38;;;2.15;;
69703;SDS011;56967;43.538;-5.646;2022-09-20T01:19:57;8.32;;;2.20;;
69703;SDS011;56967;43.538;-5.646;2022-09-20T01:25:16;4.88;;;1.90;;
69703;SDS011;56967;43.538;-5.646;2022-09-20T01:27:48;5.38;;;2.25;;
69703;SDS011;56967;43.538;-5.646;2022-09-20T01:30:23;8.50;;;1.95;;
69703;SDS011;56967;43.538;-5.646;2022-09-20T01:35:32;3.83;;;2.20;;
69703;SDS011;56967;43.538;-5.646;2022-09-20T01:46:29;7.25;;;1.90;;
69703;SDS011;56967;43.538;-5.646;2022-09-20T01:57:29;5.97;;;1.60;;
69703;SDS011;56967;43.538;-5.646;2022-09-20T02:14:02;4.78;;;1.70;;
69703;SDS011;56967;43.538;-5.646;2022-09-20T02:24:31;5.40;;;1.90;;
69703;SDS011;56967;43.538;-5.646;2022-09-20T02:30:18;4.57;;;1.85;;
69703;SDS011;56967;43.538;-5.646;2022-09-20T02:38:29;4.60;;;2.10;;
69703;SDS011;56967;43.538;-5.646;2022-09-20T02:44:06;5.38;;;2.10;;
69703;SDS011;56967;43.538;-5.646;2022-09-20T02:49:27;4.70;;;1.92;;
69703;SDS011;56967;43.538;-5.646;2022-09-20T02:52:01;5.63;;;2.40;;
69703;SDS011;56967;43.538;-5.646;2022-09-20T02:55:06;5.43;;;2.35;;
69703;SDS011;56967;43.538;-5.646;2022-09-20T02:57:25;3.65;;;2.00;;
69703;SDS011;56967;43.538;-5.646;2022-09-20T03:00:04;3.55;;;2.00;;
69703;SDS011;56967;43.538;-5.646;2022-09-20T03:05:42;4.55;;;2.13;;
69703;SDS011;56967;43.538;-5.646;2022-09-20T03:08:30;2.97;;;1.88;;
69703;SDS011;56967;43.538;-5.646;2022-09-20T03:25:29;5.15;;;2.10;;
69703;SDS011;56967;43.538;-5.646;2022-09-20T03:30:59;2.42;;;1.90;;
69703;SDS011;56967;43.538;-5.646;2022-09-20T03:39:30;5.63;;;2.45;;
69703;SDS011;56967;43.538;-5.646;2022-09-20T03:44:53;6.97;;;2.28;;
69703;SDS011;56967;43.538;-5.646;2022-09-20T03:48:32;4.10;;;2.53;;
69703;SDS011;56967;43.538;-5.646;2022-09-20T03:56:51;4.78;;;2.13;;
69703;SDS011;56967;43.538;-5.646;2022-09-20T04:02:05;3.78;;;1.90;;
69703;SDS011;56967;43.538;-5.646;2022-09-20T04:04:48;2.83;;;2.05;;
69703;SDS011;56967;43.538;-5.646;2022-09-20T04:07:22;5.30;;;1.90;;
69703;SDS011;56967;43.538;-5.646;2022-09-20T04:13:29;4.90;;;2.00;;
69703;SDS011;56967;43.538;-5.646;2022-09-20T04:16:09;4.30;;;1.75;;
69703;SDS011;56967;43.538;-5.646;2022-09-20T04:18:52;5.43;;;1.80;;
69703;SDS011;56967;43.538;-5.646;2022-09-20T04:26:29;2.97;;;2.17;;
69703;SDS011;56967;43.538;-5.646;2022-09-20T04:34:48;3.75;;;2.13;;
69703;SDS011;56967;43.538;-5.646;2022-09-20T04:37:48;5.22;;;2.08;;
69703;SDS011;56967;43.538;-5.646;2022-09-20T05:02:54;2.33;;;1.80;;
69703;SDS011;56967;43.538;-5.646;2022-09-20T05:08:17;3.80;;;2.05;;
69703;SDS011;56967;43.538;-5.646;2022-09-20T05:14:01;6.75;;;2.00;;
69703;SDS011;56967;43.538;-5.646;2022-09-20T05:27:54;4.18;;;1.90;;
69703;SDS011;56967;43.538;-5.646;2022-09-20T05:30:35;5.20;;;2.00;;
69703;SDS011;56967;43.538;-5.646;2022-09-20T05:35:42;5.97;;;2.53;;
69703;SDS011;56967;43.538;-5.646;2022-09-20T05:41:11;3.47;;;2.00;;
69703;SDS011;56967;43.538;-5.646;2022-09-20T05:46:29;4.25;;;2.13;;
69703;SDS011;56967;43.538;-5.646;2022-09-20T05:55:14;5.00;;;2.20;;
69703;SDS011;56967;43.538;-5.646;2022-09-20T06:00:23;4.82;;;2.28;;
69703;SDS011;56967;43.538;-5.646;2022-09-20T06:03:20;6.18;;;2.65;;
69703;SDS011;56967;43.538;-5.646;2022-09-20T06:05:57;3.55;;;2.45;;
69703;SDS011;56967;43.538;-5.646;2022-09-20T06:14:16;3.75;;;2.40;;
69703;SDS011;56967;43.538;-5.646;2022-09-20T06:22:42;9.00;;;2.70;;
69703;SDS011;56967;43.538;-5.646;2022-09-20T06:28:14;5.03;;;2.20;;
69703;SDS011;56967;43.538;-5.646;2022-09-20T06:30:46;3.80;;;2.22;;
69703;SDS011;56967;43.538;-5.646;2022-09-20T06:33:22;6.35;;;2.40;;
69703;SDS011;56967;43.538;-5.646;2022-09-20T06:35:50;6.22;;;2.75;;
69703;SDS011;56967;43.538;-5.646;2022-09-20T06:41:21;5.30;;;2.28;;
69703;SDS011;56967;43.538;-5.646;2022-09-20T06:43:59;9.27;;;2.80;;
69703;SDS011;56967;43.538;-5.646;2022-09-20T06:46:29;7.07;;;2.58;;
69703;SDS011;56967;43.538;-5.646;2022-09-20T06:48:57;4.72;;;2.42;;
69703;SDS011;56967;43.538;-5.646;2022-09-20T06:51:24;6.07;;;3.00;;
69703;SDS011;56967;43.538;-5.646;2022-09-20T06:53:51;6.75;;;2.40;;
69703;SDS011;56967;43.538;-5.646;2022-09-20T06:56:21;4.82;;;2.55;;
69703;SDS011;56967;43.538;-5.646;2022-09-20T06:58:50;6.35;;;2.50;;
69703;SDS011;56967;43.538;-5.646;2022-09-20T07:01:17;7.10;;;2.63;;
69703;SDS011;56967;43.538;-5.646;2022-09-20T07:03:43;5.28;;;2.75;;
69703;SDS011;56967;43.538;-5.646;2022-09-20T07:06:09;8.60;;;2.60;;
69703;SDS011;56967;43.538;-5.646;2022-09-20T07:08:35;5.57;;;2.60;;
69703;SDS011;56967;43.538;-5.646;2022-09-20T07:11:05;8.80;;;3.10;;
69703;SDS011;56967;43.538;-5.646;2022-09-20T07:13:33;6.15;;;3.08;;
69703;SDS011;56967;43.538;-5.646;2022-09-20T07:16:01;5.25;;;2.80;;
69703;SDS011;56967;43.538;-5.646;2022-09-20T07:18:28;4.68;;;2.55;;
69703;SDS011;56967;43.538;-5.646;2022-09-20T07:20:53;8.02;;;2.40;;
69703;SDS011;56967;43.538;-5.646;2022-09-20T07:23:22;6.97;;;2.60;;
69703;SDS011;56967;43.538;-5.646;2022-09-20T07:25:50;5.30;;;2.45;;
69703;SDS011;56967;43.538;-5.646;2022-09-20T07:28:16;7.35;;;2.60;;
69703;SDS011;56967;43.538;-5.646;2022-09-20T07:30:45;4.13;;;2.70;;
69703;SDS011;56967;43.538;-5.646;2022-09-20T07:33:12;6.22;;;2.95;;
69703;SDS011;56967;43.538;-5.646;2022-09-20T07:35:43;4.95;;;3.25;;
69703;SDS011;56967;43.538;-5.646;2022-09-20T07:38:10;7.47;;;2.83;;
69703;SDS011;56967;43.538;-5.646;2022-09-20T07:40:36;4.68;;;2.70;;
69703;SDS011;56967;43.538;-5.646;2022-09-20T07:43:02;4.45;;;2.88;;
69703;SDS011;56967;43.538;-5.646;2022-09-20T07:45:27;4.63;;;3.08;;
69703;SDS011;56967;43.538;-5.646;2022-09-20T07:47:53;6.35;;;3.60;;
69703;SDS011;56967;43.538;-5.646;2022-09-20T07:50:21;4.38;;;3.35;;
69703;SDS011;56967;43.538;-5.646;2022-09-20T07:52:46;5.05;;;3.60;;
69703;SDS011;56967;43.538;-5.646;2022-09-20T07:55:12;5.43;;;3.42;;
69703;SDS011;56967;43.538;-5.646;2022-09-20T07:57:38;5.35;;;3.13;;
69703;SDS011;56967;43.538;-5.646;2022-09-20T08:00:04;5.97;;;3.60;;
69703;SDS011;56967;43.538;-5.646;2022-09-20T08:02:31;5.20;;;3.53;;
69703;SDS011;56967;43.538;-5.646;2022-09-20T08:04:56;6.80;;;4.30;;
69703;SDS011;56967;43.538;-5.646;2022-09-20T08:07:22;5.35;;;3.88;;
69703;SDS011;56967;43.538;-5.646;2022-09-20T08:09:48;7.00;;;4.10;;
69703;SDS011;56967;43.538;-5.646;2022-09-20T08:12:14;5.85;;;4.03;;
69703;SDS011;56967;43.538;-5.646;2022-09-20T08:14:40;7.18;;;4.22;;
69703;SDS011;56967;43.538;-5.646;2022-09-20T08:17:05;8.82;;;4.15;;
69703;SDS011;56967;43.538;-5.646;2022-09-20T08:19:31;7.18;;;3.80;;
69703;SDS011;56967;43.538;-5.646;2022-09-20T08:21:57;5.43;;;3.70;;
69703;SDS011;56967;43.538;-5.646;2022-09-20T08:24:23;6.50;;;3.97;;
69703;SDS011;56967;43.538;-5.646;2022-09-20T08:26:50;7.75;;;4.07;;
69703;SDS011;56967;43.538;-5.646;2022-09-20T08:29:16;8.45;;;4.00;;
69703;SDS011;56967;43.538;-5.646;2022-09-20T08:31:42;7.20;;;4.70;;
69703;SDS011;56967;43.538;-5.646;2022-09-20T08:34:14;9.10;;;4.95;;
69703;SDS011;56967;43.538;-5.646;2022-09-20T08:36:42;12.35;;;4.97;;
69703;SDS011;56967;43.538;-5.646;2022-09-20T08:39:10;12.00;;;5.00;;
69703;SDS011;56967;43.538;-5.646;2022-09-20T08:41:39;13.02;;;5.53;;
69703;SDS011;56967;43.538;-5.646;2022-09-20T08:47:36;9.68;;;5.05;;
69703;SDS011;56967;43.538;-5.646;2022-09-20T08:49:46;9.65;;;4.32;;
69703;SDS011;56967;43.538;-5.646;2022-09-20T08:52:15;8.65;;;4.05;;
69703;SDS011;56967;43.538;-5.646;2022-09-20T08:54:44;10.35;;;4.57;;
69703;SDS011;56967;43.538;-5.646;2022-09-20T08:57:14;10.90;;;4.50;;
69703;SDS011;56967;43.538;-5.646;2022-09-20T08:59:42;9.52;;;4.03;;
69703;SDS011;56967;43.538;-5.646;2022-09-20T09:02:16;9.05;;;4.20;;
69703;SDS011;56967;43.538;-5.646;2022-09-20T09:04:43;11.70;;;3.55;;
69703;SDS011;56967;43.538;-5.646;2022-09-20T09:07:15;9.93;;;3.47;;
69703;SDS011;56967;43.538;-5.646;2022-09-20T09:09:43;7.55;;;3.35;;
69703;SDS011;56967;43.538;-5.646;2022-09-20T09:12:29;11.73;;;3.40;;
69703;SDS011;56967;43.538;-5.646;2022-09-20T09:14:59;8.82;;;2.85;;
69703;SDS011;56967;43.538;-5.646;2022-09-20T09:17:43;10.43;;;3.10;;
69703;SDS011;56967;43.538;-5.646;2022-09-20T09:20:16;10.23;;;2.88;;
69703;SDS011;56967;43.538;-5.646;2022-09-20T09:22:45;6.97;;;2.75;;
69703;SDS011;56967;43.538;-5.646;2022-09-20T09:25:22;7.70;;;2.30;;
69703;SDS011;56967;43.538;-5.646;2022-09-20T09:28:11;5.45;;;1.55;;
69703;SDS011;56967;43.538;-5.646;2022-09-20T09:30:40;7.63;;;2.28;;
69703;SDS011;56967;43.538;-5.646;2022-09-20T09:33:27;5.22;;;1.88;;
69703;SDS011;56967;43.538;-5.646;2022-09-20T09:35:55;12.52;;;2.13;;
69703;SDS011;56967;43.538;-5.646;2022-09-20T09:38:29;5.82;;;1.95;;
69703;SDS011;56967;43.538;-5.646;2022-09-20T09:40:57;5.20;;;1.63;;
69703;SDS011;56967;43.538;-5.646;2022-09-20T09:43:25;4.88;;;1.70;;
69703;SDS011;56967;43.538;-5.646;2022-09-20T09:45:54;6.30;;;2.00;;
69703;SDS011;56967;43.538;-5.646;2022-09-20T09:50:48;9.07;;;1.67;;
69703;SDS011;56967;43.538;-5.646;2022-09-20T09:53:15;4.78;;;1.50;;
69703;SDS011;56967;43.538;-5.646;2022-09-20T09:58:59;8.10;;;2.22;;
69703;SDS011;56967;43.538;-5.646;2022-09-20T10:06:49;6.35;;;1.60;;
69703;SDS011;56967;43.538;-5.646;2022-09-20T10:13:03;8.55;;;1.92;;
69703;SDS011;56967;43.538;-5.646;2022-09-20T10:35:10;6.78;;;1.73;;
69703;SDS011;56967;43.538;-5.646;2022-09-20T10:37:53;6.97;;;1.97;;
69703;SDS011;56967;43.538;-5.646;2022-09-20T11:08:07;6.68;;;2.00;;
69703;SDS011;56967;43.538;-5.646;2022-09-20T11:10:52;7.93;;;1.70;;
69703;SDS011;56967;43.538;-5.646;2022-09-20T11:16:02;4.65;;;1.73;;
69703;SDS011;56967;43.538;-5.646;2022-09-20T11:18:40;6.05;;;1.80;;
69703;SDS011;56967;43.538;-5.646;2022-09-20T11:21:24;6.70;;;1.73;;
69703;SDS011;56967;43.538;-5.646;2022-09-20T11:23:59;7.40;;;1.70;;
69703;SDS011;56967;43.538;-5.646;2022-09-20T11:32:22;7.50;;;2.20;;
69703;SDS011;56967;43.538;-5.646;2022-09-20T11:37:18;10.10;;;1.75;;
69703;SDS011;56967;43.538;-5.646;2022-09-20T11:39:52;6.68;;;1.70;;
69703;SDS011;56967;43.538;-5.646;2022-09-20T11:42:32;5.97;;;1.73;;
69703;SDS011;56967;43.538;-5.646;2022-09-20T11:45:00;5.93;;;1.60;;
69703;SDS011;56967;43.538;-5.646;2022-09-20T11:52:50;5.10;;;2.00;;
69703;SDS011;56967;43.538;-5.646;2022-09-20T11:58:09;5.72;;;1.55;;
69703;SDS011;56967;43.538;-5.646;2022-09-20T12:00:42;8.48;;;1.90;;
69703;SDS011;56967;43.538;-5.646;2022-09-20T12:08:36;9.68;;;1.88;;
69703;SDS011;56967;43.538;-5.646;2022-09-20T12:11:11;8.75;;;1.92;;
69703;SDS011;56967;43.538;-5.646;2022-09-20T12:13:39;7.07;;;1.48;;
69703;SDS011;56967;43.538;-5.646;2022-09-20T12:21:21;12.77;;;2.22;;
69703;SDS011;56967;43.538;-5.646;2022-09-20T12:31:47;7.45;;;1.75;;
69703;SDS011;56967;43.538;-5.646;2022-09-20T12:39:16;4.57;;;1.70;;
69703;SDS011;56967;43.538;-5.646;2022-09-20T12:44:59;5.72;;;2.10;;
69703;SDS011;56967;43.538;-5.646;2022-09-20T12:47:32;8.55;;;2.13;;
69703;SDS011;56967;43.538;-5.646;2022-09-20T12:50:01;5.60;;;1.60;;
69703;SDS011;56967;43.538;-5.646;2022-09-20T12:52:48;4.53;;;1.98;;
69703;SDS011;56967;43.538;-5.646;2022-09-20T12:55:48;7.32;;;2.00;;
69703;SDS011;56967;43.538;-5.646;2022-09-20T12:58:23;5.30;;;1.50;;
69703;SDS011;56967;43.538;-5.646;2022-09-20T13:01:25;7.63;;;2.13;;
69703;SDS011;56967;43.538;-5.646;2022-09-20T13:03:39;8.88;;;2.35;;
69703;SDS011;56967;43.538;-5.646;2022-09-20T13:13:41;9.48;;;1.80;;
69703;SDS011;56967;43.538;-5.646;2022-09-20T13:16:17;6.68;;;2.10;;
69703;SDS011;56967;43.538;-5.646;2022-09-20T13:19:00;4.75;;;1.70;;
69703;SDS011;56967;43.538;-5.646;2022-09-20T13:21:55;11.02;;;1.88;;
69703;SDS011;56967;43.538;-5.646;2022-09-20T13:24:26;5.85;;;2.00;;
69703;SDS011;56967;43.538;-5.646;2022-09-20T13:26:55;8.43;;;2.20;;
69703;SDS011;56967;43.538;-5.646;2022-09-20T13:29:31;5.80;;;1.90;;
69703;SDS011;56967;43.538;-5.646;2022-09-20T13:32:44;4.55;;;1.80;;
69703;SDS011;56967;43.538;-5.646;2022-09-20T13:37:45;5.60;;;1.60;;
69703;SDS011;56967;43.538;-5.646;2022-09-20T13:40:16;6.93;;;1.90;;
69703;SDS011;56967;43.538;-5.646;2022-09-20T13:42:45;7.03;;;1.98;;
69703;SDS011;56967;43.538;-5.646;2022-09-20T13:45:12;7.75;;;1.98;;
69703;SDS011;56967;43.538;-5.646;2022-09-20T13:47:42;10.63;;;2.00;;
69703;SDS011;56967;43.538;-5.646;2022-09-20T13:50:15;8.48;;;2.13;;
69703;SDS011;56967;43.538;-5.646;2022-09-20T13:52:50;7.35;;;2.35;;
69703;SDS011;56967;43.538;-5.646;2022-09-20T13:58:19;6.85;;;1.90;;
69703;SDS011;56967;43.538;-5.646;2022-09-20T14:00:53;5.93;;;1.93;;
69703;SDS011;56967;43.538;-5.646;2022-09-20T14:03:22;6.50;;;1.80;;
69703;SDS011;56967;43.538;-5.646;2022-09-20T14:05:50;7.88;;;1.80;;
69703;SDS011;56967;43.538;-5.646;2022-09-20T14:08:22;5.57;;;2.13;;
69703;SDS011;56967;43.538;-5.646;2022-09-20T14:11:09;8.05;;;2.00;;
69703;SDS011;56967;43.538;-5.646;2022-09-20T14:13:38;6.78;;;2.17;;
69703;SDS011;56967;43.538;-5.646;2022-09-20T14:16:06;6.95;;;1.90;;
69703;SDS011;56967;43.538;-5.646;2022-09-20T14:18:33;3.80;;;1.73;;
69703;SDS011;56967;43.538;-5.646;2022-09-20T14:21:00;8.18;;;1.80;;
69703;SDS011;56967;43.538;-5.646;2022-09-20T14:23:27;7.10;;;2.05;;
69703;SDS011;56967;43.538;-5.646;2022-09-20T14:26:36;6.65;;;1.70;;
69703;SDS011;56967;43.538;-5.646;2022-09-20T14:28:42;7.00;;;2.20;;
69703;SDS011;56967;43.538;-5.646;2022-09-20T14:31:11;7.78;;;1.98;;
69703;SDS011;56967;43.538;-5.646;2022-09-20T14:33:56;9.32;;;1.80;;
69703;SDS011;56967;43.538;-5.646;2022-09-20T14:36:24;7.18;;;2.00;;
69703;SDS011;56967;43.538;-5.646;2022-09-20T14:39:02;8.80;;;2.38;;
69703;SDS011;56967;43.538;-5.646;2022-09-20T14:43:57;7.03;;;1.92;;
69703;SDS011;56967;43.538;-5.646;2022-09-20T14:46:28;6.75;;;1.58;;
69703;SDS011;56967;43.538;-5.646;2022-09-20T14:49:41;6.25;;;1.70;;
69703;SDS011;56967;43.538;-5.646;2022-09-20T14:51:49;8.73;;;2.10;;
69703;SDS011;56967;43.538;-5.646;2022-09-20T14:54:23;6.22;;;1.75;;
69703;SDS011;56967;43.538;-5.646;2022-09-20T14:56:51;10.73;;;1.73;;
69703;SDS011;56967;43.538;-5.646;2022-09-20T15:01:43;7.63;;;2.17;;
69703;SDS011;56967;43.538;-5.646;2022-09-20T15:04:21;7.72;;;1.65;;
69703;SDS011;56967;43.538;-5.646;2022-09-20T15:06:49;6.03;;;1.55;;
69703;SDS011;56967;43.538;-5.646;2022-09-20T15:09:16;4.80;;;1.60;;
69703;SDS011;56967;43.538;-5.646;2022-09-20T15:11:43;9.90;;;1.92;;
69703;SDS011;56967;43.538;-5.646;2022-09-20T15:14:08;7.38;;;1.80;;
69703;SDS011;56967;43.538;-5.646;2022-09-20T15:16:34;8.90;;;1.42;;
69703;SDS011;56967;43.538;-5.646;2022-09-20T15:19:00;6.72;;;1.60;;
69703;SDS011;56967;43.538;-5.646;2022-09-20T15:21:25;5.30;;;1.50;;
69703;SDS011;56967;43.538;-5.646;2022-09-20T15:23:51;6.57;;;1.52;;
69703;SDS011;56967;43.538;-5.646;2022-09-20T15:26:18;7.18;;;1.23;;
69703;SDS011;56967;43.538;-5.646;2022-09-20T15:28:45;6.07;;;1.35;;
69703;SDS011;56967;43.538;-5.646;2022-09-20T15:31:11;6.20;;;1.30;;
69703;SDS011;56967;43.538;-5.646;2022-09-20T15:33:39;7.10;;;1.33;;
69703;SDS011;56967;43.538;-5.646;2022-09-20T15:36:05;2.97;;;1.00;;
69703;SDS011;56967;43.538;-5.646;2022-09-20T15:38:31;9.57;;;1.25;;
69703;SDS011;56967;43.538;-5.646;2022-09-20T15:40:59;7.47;;;1.42;;
69703;SDS011;56967;43.538;-5.646;2022-09-20T15:43:25;4.80;;;0.88;;
69703;SDS011;56967;43.538;-5.646;2022-09-20T15:46:25;3.30;;;1.23;;
69703;SDS011;56967;43.538;-5.646;2022-09-20T15:48:49;3.88;;;1.02;;
69703;SDS011;56967;43.538;-5.646;2022-09-20T15:51:14;7.68;;;1.02;;
69703;SDS011;56967;43.538;-5.646;2022-09-20T15:53:44;7.40;;;1.65;;
69703;SDS011;56967;43.538;-5.646;2022-09-20T15:56:17;11.60;;;1.52;;
69703;SDS011;56967;43.538;-5.646;2022-09-20T15:58:46;4.50;;;1.08;;
69703;SDS011;56967;43.538;-5.646;2022-09-20T16:01:13;6.05;;;1.15;;
69703;SDS011;56967;43.538;-5.646;2022-09-20T16:03:40;8.35;;;1.58;;
69703;SDS011;56967;43.538;-5.646;2022-09-20T16:06:08;5.95;;;1.25;;
69703;SDS011;56967;43.538;-5.646;2022-09-20T16:08:38;6.55;;;1.17;;
69703;SDS011;56967;43.538;-5.646;2022-09-20T16:11:05;5.60;;;1.10;;
69703;SDS011;56967;43.538;-5.646;2022-09-20T16:13:32;5.03;;;1.27;;
69703;SDS011;56967;43.538;-5.646;2022-09-20T16:16:00;8.77;;;1.30;;
69703;SDS011;56967;43.538;-5.646;2022-09-20T16:18:26;7.85;;;1.27;;
69703;SDS011;56967;43.538;-5.646;2022-09-20T16:21:12;3.37;;;0.70;;
69703;SDS011;56967;43.538;-5.646;2022-09-20T16:23:40;16.08;;;1.85;;
69703;SDS011;56967;43.538;-5.646;2022-09-20T16:26:08;8.23;;;1.13;;
69703;SDS011;56967;43.538;-5.646;2022-09-20T16:28:43;12.80;;;1.70;;
69703;SDS011;56967;43.538;-5.646;2022-09-20T16:31:27;7.07;;;1.30;;
69703;SDS011;56967;43.538;-5.646;2022-09-20T16:33:55;7.57;;;1.30;;
69703;SDS011;56967;43.538;-5.646;2022-09-20T16:36:21;6.18;;;1.27;;
69703;SDS011;56967;43.538;-5.646;2022-09-20T16:38:51;7.53;;;1.15;;
69703;SDS011;56967;43.538;-5.646;2022-09-20T16:41:21;5.93;;;1.25;;
69703;SDS011;56967;43.538;-5.646;2022-09-20T16:43:48;5.43;;;0.90;;
69703;SDS011;56967;43.538;-5.646;2022-09-20T16:46:17;5.95;;;1.33;;
69703;SDS011;56967;43.538;-5.646;2022-09-20T16:48:44;8.45;;;1.10;;
69703;SDS011;56967;43.538;-5.646;2022-09-20T16:51:12;5.28;;;1.10;;
69703;SDS011;56967;43.538;-5.646;2022-09-20T16:53:38;5.45;;;1.10;;
69703;SDS011;56967;43.538;-5.646;2022-09-20T16:56:04;6.63;;;1.20;;
69703;SDS011;56967;43.538;-5.646;2022-09-20T16:58:30;7.38;;;1.20;;
69703;SDS011;56967;43.538;-5.646;2022-09-20T17:01:05;6.45;;;1.00;;
69703;SDS011;56967;43.538;-5.646;2022-09-20T17:03:32;4.40;;;0.90;;
69703;SDS011;56967;43.538;-5.646;2022-09-20T17:06:02;6.45;;;0.90;;
69703;SDS011;56967;43.538;-5.646;2022-09-20T17:08:29;4.35;;;1.20;;
69703;SDS011;56967;43.538;-5.646;2022-09-20T17:11:00;10.52;;;1.20;;
69703;SDS011;56967;43.538;-5.646;2022-09-20T17:13:29;5.88;;;0.93;;
69703;SDS011;56967;43.538;-5.646;2022-09-20T17:16:02;10.02;;;1.33;;
69703;SDS011;56967;43.538;-5.646;2022-09-20T17:18:33;6.88;;;1.10;;
69703;SDS011;56967;43.538;-5.646;2022-09-20T17:21:05;8.60;;;1.00;;
69703;SDS011;56967;43.538;-5.646;2022-09-20T17:23:31;6.50;;;1.25;;
69703;SDS011;56967;43.538;-5.646;2022-09-20T17:26:01;6.72;;;1.10;;
69703;SDS011;56967;43.538;-5.646;2022-09-20T17:28:35;4.43;;;1.27;;
69703;SDS011;56967;43.538;-5.646;2022-09-20T17:31:03;9.00;;;1.10;;
69703;SDS011;56967;43.538;-5.646;2022-09-20T17:33:31;7.88;;;1.65;;
69703;SDS011;56967;43.538;-5.646;2022-09-20T17:35:57;3.17;;;0.80;;
69703;SDS011;56967;43.538;-5.646;2022-09-20T17:38:27;6.10;;;1.13;;
69703;SDS011;56967;43.538;-5.646;2022-09-20T17:41:37;5.38;;;1.10;;
69703;SDS011;56967;43.538;-5.646;2022-09-20T17:43:44;7.20;;;1.27;;
69703;SDS011;56967;43.538;-5.646;2022-09-20T17:46:15;7.82;;;1.27;;
69703;SDS011;56967;43.538;-5.646;2022-09-20T17:48:47;8.90;;;0.98;;
69703;SDS011;56967;43.538;-5.646;2022-09-20T17:51:18;6.50;;;1.30;;
69703;SDS011;56967;43.538;-5.646;2022-09-20T17:53:44;7.72;;;1.20;;
69703;SDS011;56967;43.538;-5.646;2022-09-20T17:56:11;9.68;;;1.30;;
69703;SDS011;56967;43.538;-5.646;2022-09-20T17:58:37;6.93;;;1.13;;
69703;SDS011;56967;43.538;-5.646;2022-09-20T18:01:04;5.55;;;1.10;;
69703;SDS011;56967;43.538;-5.646;2022-09-20T18:03:35;4.93;;;0.90;;
69703;SDS011;56967;43.538;-5.646;2022-09-20T18:08:46;9.38;;;1.17;;
69703;SDS011;56967;43.538;-5.646;2022-09-20T18:11:13;9.35;;;1.50;;
69703;SDS011;56967;43.538;-5.646;2022-09-20T18:13:39;6.88;;;1.40;;
69703;SDS011;56967;43.538;-5.646;2022-09-20T18:16:11;8.52;;;1.40;;
69703;SDS011;56967;43.538;-5.646;2022-09-20T18:18:38;5.80;;;1.05;;
69703;SDS011;56967;43.538;-5.646;2022-09-20T18:21:12;9.85;;;1.67;;
69703;SDS011;56967;43.538;-5.646;2022-09-20T18:23:42;8.25;;;1.02;;
69703;SDS011;56967;43.538;-5.646;2022-09-20T18:26:10;7.93;;;1.52;;
69703;SDS011;56967;43.538;-5.646;2022-09-20T18:28:49;4.78;;;0.93;;
69703;SDS011;56967;43.538;-5.646;2022-09-20T18:31:16;4.03;;;0.77;;
69703;SDS011;56967;43.538;-5.646;2022-09-20T18:33:42;6.38;;;1.33;;
69703;SDS011;56967;43.538;-5.646;2022-09-20T18:36:08;6.72;;;1.00;;
69703;SDS011;56967;43.538;-5.646;2022-09-20T18:38:34;9.20;;;1.25;;
69703;SDS011;56967;43.538;-5.646;2022-09-20T18:41:00;5.97;;;1.02;;
69703;SDS011;56967;43.538;-5.646;2022-09-20T18:43:30;5.95;;;1.20;;
69703;SDS011;56967;43.538;-5.646;2022-09-20T18:46:03;7.13;;;1.10;;
69703;SDS011;56967;43.538;-5.646;2022-09-20T18:48:32;6.53;;;1.20;;
69703;SDS011;56967;43.538;-5.646;2022-09-20T18:51:01;7.25;;;1.20;;
69703;SDS011;56967;43.538;-5.646;2022-09-20T18:53:29;6.90;;;1.30;;
69703;SDS011;56967;43.538;-5.646;2022-09-20T18:58:45;7.07;;;1.17;;
69703;SDS011;56967;43.538;-5.646;2022-09-20T19:03:54;5.18;;;0.85;;
69703;SDS011;56967;43.538;-5.646;2022-09-20T19:06:41;6.30;;;0.75;;
69703;SDS011;56967;43.538;-5.646;2022-09-20T19:09:33;3.80;;;0.98;;
69703;SDS011;56967;43.538;-5.646;2022-09-20T19:12:17;5.15;;;0.98;;
69703;SDS011;56967;43.538;-5.646;2022-09-20T19:14:56;5.82;;;0.95;;
69703;SDS011;56967;43.538;-5.646;2022-09-20T19:23:12;7.55;;;1.10;;
69703;SDS011;56967;43.538;-5.646;2022-09-20T19:26:43;18.20;;;1.40;;
69703;SDS011;56967;43.538;-5.646;2022-09-20T19:28:46;6.85;;;1.00;;
69703;SDS011;56967;43.538;-5.646;2022-09-20T19:31:29;8.07;;;1.17;;
69703;SDS011;56967;43.538;-5.646;2022-09-20T19:33:57;6.53;;;0.90;;
69703;SDS011;56967;43.538;-5.646;2022-09-20T19:36:38;5.55;;;0.98;;
69703;SDS011;56967;43.538;-5.646;2022-09-20T19:50:43;6.85;;;0.95;;
69703;SDS011;56967;43.538;-5.646;2022-09-20T19:53:14;7.82;;;0.95;;
69703;SDS011;56967;43.538;-5.646;2022-09-20T19:55:47;3.95;;;0.85;;
69703;SDS011;56967;43.538;-5.646;2022-09-20T19:58:16;7.00;;;1.80;;
69703;SDS011;56967;43.538;-5.646;2022-09-20T20:00:42;3.30;;;0.90;;
69703;SDS011;56967;43.538;-5.646;2022-09-20T20:03:12;6.82;;;1.20;;
69703;SDS011;56967;43.538;-5.646;2022-09-20T20:05:45;9.65;;;1.55;;
69703;SDS011;56967;43.538;-5.646;2022-09-20T20:11:27;8.85;;;1.23;;
69703;SDS011;56967;43.538;-5.646;2022-09-20T20:19:38;5.63;;;1.00;;
69703;SDS011;56967;43.538;-5.646;2022-09-20T20:22:17;8.52;;;1.60;;
69703;SDS011;56967;43.538;-5.646;2022-09-20T20:27:53;5.47;;;1.33;;
69703;SDS011;56967;43.538;-5.646;2022-09-20T20:30:20;6.03;;;1.10;;
69703;SDS011;56967;43.538;-5.646;2022-09-20T20:32:46;8.73;;;1.35;;
69703;SDS011;56967;43.538;-5.646;2022-09-20T20:35:12;7.97;;;1.00;;
69703;SDS011;56967;43.538;-5.646;2022-09-20T20:37:41;8.52;;;1.20;;
69703;SDS011;56967;43.538;-5.646;2022-09-20T20:40:21;9.55;;;1.33;;
69703;SDS011;56967;43.538;-5.646;2022-09-20T20:42:47;5.30;;;1.00;;
69703;SDS011;56967;43.538;-5.646;2022-09-20T20:45:13;6.50;;;1.20;;
69703;SDS011;56967;43.538;-5.646;2022-09-20T20:47:39;6.15;;;1.13;;
69703;SDS011;56967;43.538;-5.646;2022-09-20T20:50:06;5.30;;;1.27;;
69703;SDS011;56967;43.538;-5.646;2022-09-20T20:52:35;10.93;;;1.30;;